Time;durP1;ratioP1;P1;durP2;ratioP2;P2;SDS_P1;SDS_P2;PMS_P1;PMS_P2;Temp;Humidity;BMP_temperature;BMP_pressure;BME280_temperature;BME280_humidity;BME280_pressure;Samples;Min_cycle;Max_cycle;Signal;HPM_P1;HPM_P2
2022/10/15 00:02:08;;;;;;;3.20;1.63;;;;;;;20.39;65.43;99577.66;5051081;28;20175;-67
2022/10/15 00:04:33;;;;;;;2.50;1.80;;;;;;;20.38;65.43;99575.19;5033203;28;20210;-66
2022/10/15 00:06:59;;;;;;;2.60;1.50;;;;;;;20.36;65.29;99567.00;5033112;28;20190;-66
2022/10/15 00:09:24;;;;;;;2.40;1.53;;;;;;;20.38;65.25;99572.31;5050957;28;20611;-66
2022/10/15 00:11:50;;;;;;;2.67;1.47;;;;;;;20.38;65.38;99567.41;5050934;28;20588;-67
2022/10/15 00:14:15;;;;;;;3.00;1.70;;;;;;;20.39;65.40;99563.31;5051222;28;20191;-66
2022/10/15 00:16:41;;;;;;;4.43;1.47;;;;;;;20.38;65.31;99578.06;5033278;28;20231;-66
2022/10/15 00:19:06;;;;;;;3.37;1.43;;;;;;;20.38;65.47;99573.16;5033867;28;20178;-66
2022/10/15 00:21:31;;;;;;;2.33;1.30;;;;;;;20.39;65.30;99577.66;5051820;28;20203;-66
2022/10/15 00:23:57;;;;;;;3.67;1.60;;;;;;;20.36;65.32;99580.53;5017338;28;20175;-66
2022/10/15 00:26:24;;;;;;;2.77;1.87;;;;;;;20.36;65.43;99581.31;5045378;28;20239;-66
2022/10/15 00:28:50;;;;;;;3.00;1.50;;;;;;;20.36;65.08;99581.31;5021084;28;20234;-66
2022/10/15 00:31:16;;;;;;;2.70;1.50;;;;;;;20.41;65.48;99582.97;5050251;28;20542;-67
2022/10/15 00:33:42;;;;;;;3.00;1.70;;;;;;;20.38;65.41;99584.63;5033841;28;20472;-67
2022/10/15 00:36:11;;;;;;;2.73;2.10;;;;;;;20.37;65.28;99588.69;5051354;28;20406;-66
2022/10/15 00:38:36;;;;;;;2.70;1.40;;;;;;;20.38;65.08;99583.78;5033609;28;20168;-67
2022/10/15 00:41:03;;;;;;;2.43;1.50;;;;;;;20.38;65.33;99586.66;5050689;28;20548;-66
2022/10/15 00:43:47;;;;;;;3.47;1.87;;;;;;;20.38;65.13;99580.91;5050423;28;20172;-66
2022/10/15 00:46:24;;;;;;;2.50;1.40;;;;;;;20.37;65.22;99587.88;5050424;28;20406;-66
2022/10/15 00:48:53;;;;;;;2.40;1.50;;;;;;;20.36;65.24;99581.31;5033570;28;20422;-66
2022/10/15 00:51:19;;;;;;;3.70;1.53;;;;;;;20.37;65.28;99593.63;5050546;28;20468;-66
2022/10/15 00:53:45;;;;;;;2.50;1.40;;;;;;;20.35;65.06;99588.28;5032932;28;20414;-66
2022/10/15 00:56:11;;;;;;;2.53;1.40;;;;;;;20.36;65.36;99586.25;5050495;28;20545;-66
2022/10/15 00:58:36;;;;;;;2.07;1.30;;;;;;;20.36;65.12;99589.91;5033566;28;20188;-66
2022/10/15 01:01:02;;;;;;;2.50;1.63;;;;;;;20.35;65.18;99591.16;5050641;28;20462;-66
2022/10/15 01:03:27;;;;;;;3.87;1.40;;;;;;;20.36;65.32;99589.91;5030230;28;20212;-67
2022/10/15 01:05:53;;;;;;;2.33;1.50;;;;;;;20.36;65.28;99589.13;5035180;28;20246;-67
2022/10/15 01:08:18;;;;;;;2.67;1.40;;;;;;;20.36;65.17;99584.19;5019685;28;20198;-67
2022/10/15 01:10:50;;;;;;;2.30;1.50;;;;;;;20.34;65.18;99592.41;5035420;28;20180;-67
2022/10/15 01:13:30;;;;;;;2.60;1.50;;;;;;;20.38;65.58;99595.25;5019561;28;20172;-66
2022/10/15 01:16:08;;;;;;;2.67;1.37;;;;;;;20.34;65.11;99586.66;5053157;28;20488;-67
2022/10/15 01:18:38;;;;;;;2.07;1.40;;;;;;;20.34;65.30;99586.66;5031264;28;20526;-67
2022/10/15 01:21:22;;;;;;;2.80;1.47;;;;;;;20.34;65.19;99580.94;5014642;28;20454;-66
2022/10/15 01:24:02;;;;;;;2.73;1.60;;;;;;;20.34;65.31;99586.66;5032325;28;20495;-66
2022/10/15 01:26:39;;;;;;;2.97;1.40;;;;;;;20.36;65.43;99581.31;5032100;28;20867;-67
2022/10/15 01:29:08;;;;;;;2.80;1.60;;;;;;;20.36;65.62;99577.66;5030054;28;20434;-66
2022/10/15 01:31:38;;;;;;;3.00;1.30;;;;;;;20.35;65.33;99578.84;5031168;28;20407;-66
2022/10/15 01:34:08;;;;;;;4.57;1.80;;;;;;;20.34;65.28;99578.06;5013362;28;20423;-67
2022/10/15 01:36:36;;;;;;;2.60;1.40;;;;;;;20.34;65.31;99578.06;5031045;28;20415;-66
2022/10/15 01:39:13;;;;;;;3.50;1.83;;;;;;;20.33;65.48;99576.44;5031601;28;20468;-66
2022/10/15 01:41:46;;;;;;;2.10;1.50;;;;;;;20.34;65.09;99572.31;5030114;28;20466;-66
2022/10/15 01:44:17;;;;;;;2.23;1.60;;;;;;;20.35;64.99;99573.13;5014116;28;20404;-67
2022/10/15 01:46:42;;;;;;;2.30;1.27;;;;;;;20.34;65.70;99583.78;4997936;28;20423;-67
2022/10/15 01:49:08;;;;;;;2.80;1.70;;;;;;;20.35;65.47;99584.59;5031338;28;20407;-67
2022/10/15 01:51:34;;;;;;;2.10;1.33;;;;;;;20.34;65.11;99586.66;5030662;28;20165;-66
2022/10/15 01:53:59;;;;;;;5.33;1.53;;;;;;;20.34;65.17;99586.66;5030402;28;20167;-67
2022/10/15 01:56:25;;;;;;;2.90;1.27;;;;;;;20.33;65.24;99584.19;5030811;28;20788;-67
2022/10/15 01:58:51;;;;;;;3.40;1.00;;;;;;;20.35;65.16;99584.59;5014056;28;20545;-66
2022/10/15 02:01:17;;;;;;;4.53;1.70;;;;;;;20.34;65.46;99585.81;5013708;28;20228;-67
2022/10/15 02:03:50;;;;;;;2.83;1.70;;;;;;;20.34;65.17;99583.78;5015245;28;20461;-67
2022/10/15 02:06:31;;;;;;;2.00;1.33;;;;;;;20.34;65.11;99591.56;5019361;28;20173;-67
2022/10/15 02:09:16;;;;;;;2.13;1.43;;;;;;;20.33;65.37;99587.91;5019145;28;20415;-67
2022/10/15 02:12:09;;;;;;;2.57;1.50;;;;;;;20.34;65.25;99595.25;5034959;28;20419;-67
2022/10/15 02:14:42;;;;;;;2.93;1.77;;;;;;;20.32;65.30;99596.91;5035668;28;20391;-67
2022/10/15 02:17:09;;;;;;;3.07;1.77;;;;;;;20.33;65.41;99593.63;5026786;28;20515;-68
2022/10/15 02:19:37;;;;;;;2.23;1.37;;;;;;;20.34;65.48;99597.28;4997831;28;20412;-68
2022/10/15 02:22:18;;;;;;;2.33;1.43;;;;;;;20.34;65.36;99609.59;5015694;28;20400;-67
2022/10/15 02:24:59;;;;;;;3.43;1.63;;;;;;;20.34;65.37;99605.91;4998815;28;20428;-68
2022/10/15 02:27:25;;;;;;;3.17;1.60;;;;;;;20.33;65.16;99604.25;4998285;28;20426;-67
2022/10/15 02:29:51;;;;;;;5.73;1.30;;;;;;;20.31;65.21;99596.06;4995302;28;20443;-67
2022/10/15 02:32:17;;;;;;;2.23;1.50;;;;;;;20.32;65.41;99597.69;5011462;28;20791;-68
2022/10/15 02:34:42;;;;;;;2.70;1.57;;;;;;;20.31;65.44;99603.88;5011274;28;20441;-69
2022/10/15 02:37:08;;;;;;;2.47;1.70;;;;;;;20.31;65.10;99606.75;4978973;28;20240;-68
2022/10/15 02:39:33;;;;;;;2.40;1.40;;;;;;;20.31;65.12;99601.81;4995186;28;20170;-68
2022/10/15 02:41:59;;;;;;;2.60;1.40;;;;;;;20.30;65.36;99605.91;4996324;28;20826;-68
2022/10/15 02:44:24;;;;;;;2.93;1.20;;;;;;;20.31;65.12;99601.81;5010769;28;20158;-68
2022/10/15 02:46:50;;;;;;;2.30;1.40;;;;;;;20.32;65.35;99608.38;5011376;28;20177;-68
2022/10/15 02:49:15;;;;;;;3.37;1.60;;;;;;;20.31;65.14;99607.53;5011778;28;20162;-68
2022/10/15 02:51:40;;;;;;;2.40;1.40;;;;;;;20.31;65.20;99606.75;4996060;28;20162;-68
2022/10/15 02:54:06;;;;;;;2.47;1.50;;;;;;;20.28;65.10;99611.25;5011095;28;20911;-67
2022/10/15 02:56:32;;;;;;;2.23;1.50;;;;;;;20.31;65.34;99612.47;5011181;28;20724;-68
2022/10/15 02:58:57;;;;;;;2.27;1.10;;;;;;;20.31;65.33;99606.75;4997562;28;20215;-68
2022/10/15 03:01:23;;;;;;;2.67;1.43;;;;;;;20.30;65.01;99605.91;4997913;28;20539;-68
2022/10/15 03:03:48;;;;;;;2.40;1.37;;;;;;;20.31;65.33;99607.53;4997335;28;20670;-68
2022/10/15 03:06:14;;;;;;;3.40;1.37;;;;;;;20.32;65.14;99614.91;5014221;28;20575;-68
2022/10/15 03:08:41;;;;;;;2.80;1.63;;;;;;;20.31;65.46;99618.19;4997918;28;20522;-68
2022/10/15 03:11:07;;;;;;;3.40;1.50;;;;;;;20.29;65.03;99618.59;5013986;28;20168;-68
2022/10/15 03:13:35;;;;;;;2.40;1.30;;;;;;;20.30;65.18;99625.97;4996322;28;20452;-68
2022/10/15 03:16:06;;;;;;;3.47;1.23;;;;;;;20.31;65.26;99623.94;4993297;28;20425;-68
2022/10/15 03:18:31;;;;;;;2.27;1.20;;;;;;;20.31;65.14;99626.81;5025791;28;20471;-68
2022/10/15 03:20:57;;;;;;;2.53;1.40;;;;;;;20.30;65.57;99620.25;5033043;28;20957;-67
2022/10/15 03:23:22;;;;;;;4.43;1.20;;;;;;;20.29;65.33;99620.63;5016154;28;20180;-68
2022/10/15 03:25:48;;;;;;;1.70;1.00;;;;;;;20.30;65.04;99617.38;5034644;28;20673;-68
2022/10/15 03:28:13;;;;;;;2.83;1.33;;;;;;;20.31;65.13;99624.72;5050368;28;20616;-68
2022/10/15 03:30:39;;;;;;;2.67;1.30;;;;;;;20.28;65.08;99631.31;5033814;28;20176;-67
2022/10/15 03:33:07;;;;;;;2.27;1.40;;;;;;;20.29;65.45;99632.94;5017232;28;20643;-68
2022/10/15 03:35:33;;;;;;;3.33;1.27;;;;;;;20.29;65.24;99632.09;5034688;28;20267;-67
2022/10/15 03:37:58;;;;;;;2.03;1.13;;;;;;;20.29;65.45;99638.66;5033381;28;20395;-67
2022/10/15 03:40:23;;;;;;;2.17;1.10;;;;;;;20.30;65.13;99628.84;5034003;28;20219;-67
2022/10/15 03:42:50;;;;;;;2.07;1.40;;;;;;;20.29;65.35;99627.22;5034014;28;20180;-68
2022/10/15 03:45:16;;;;;;;2.50;1.33;;;;;;;20.28;65.06;99631.31;5033836;28;20187;-67
2022/10/15 03:47:42;;;;;;;2.97;1.40;;;;;;;20.26;65.29;99636.59;5034863;28;20403;-68
2022/10/15 03:50:08;;;;;;;5.03;1.30;;;;;;;20.30;65.14;99628.84;5033548;28;20407;-67
2022/10/15 03:52:33;;;;;;;2.23;1.30;;;;;;;20.30;64.95;99633.75;5034928;28;20179;-67
2022/10/15 03:54:59;;;;;;;3.60;1.47;;;;;;;20.29;65.34;99647.28;5035199;28;21068;-67
2022/10/15 03:57:24;;;;;;;2.00;1.30;;;;;;;20.30;65.29;99648.91;5034216;28;20164;-67
2022/10/15 03:59:50;;;;;;;2.00;1.20;;;;;;;20.28;65.33;99645.63;5034066;28;20682;-67
2022/10/15 04:02:15;;;;;;;2.87;1.50;;;;;;;20.29;65.26;99653.00;5034019;28;20176;-68
2022/10/15 04:04:40;;;;;;;2.63;1.10;;;;;;;20.31;64.94;99656.28;5033127;28;20207;-67
2022/10/15 04:07:06;;;;;;;3.33;1.40;;;;;;;20.28;64.99;99659.97;5033043;28;20168;-68
2022/10/15 04:09:31;;;;;;;3.23;1.23;;;;;;;20.29;64.95;99660.78;5034586;28;20184;-68
2022/10/15 04:11:57;;;;;;;2.30;1.33;;;;;;;20.28;65.06;99657.09;5035159;28;20172;-67
2022/10/15 04:14:23;;;;;;;2.23;1.03;;;;;;;20.30;65.23;99657.50;5033611;28;20203;-67
2022/10/15 04:16:48;;;;;;;2.57;1.80;;;;;;;20.31;65.16;99658.34;5028253;28;20319;-67
2022/10/15 04:19:14;;;;;;;1.80;1.03;;;;;;;20.27;65.33;99658.31;5013885;28;20411;-67
2022/10/15 04:21:40;;;;;;;3.20;1.40;;;;;;;20.29;64.97;99655.88;4997214;28;20212;-67
2022/10/15 04:24:05;;;;;;;2.47;1.50;;;;;;;20.29;65.28;99658.75;5015516;28;20419;-67
2022/10/15 04:26:31;;;;;;;2.77;1.47;;;;;;;20.29;65.14;99660.78;5012011;28;20707;-67
2022/10/15 04:28:56;;;;;;;2.53;1.37;;;;;;;20.29;65.05;99661.59;5005296;28;20194;-68
2022/10/15 04:31:22;;;;;;;1.97;1.10;;;;;;;20.31;64.82;99669.81;4978048;28;20233;-67
2022/10/15 04:33:48;;;;;;;2.33;1.30;;;;;;;20.29;65.18;99678.81;4994026;28;20173;-68
2022/10/15 04:36:13;;;;;;;2.03;1.20;;;;;;;20.30;65.42;99689.03;4994132;28;20537;-68
2022/10/15 04:38:39;;;;;;;1.80;1.00;;;;;;;20.29;65.04;99678.81;4995737;28;20424;-67
2022/10/15 04:41:06;;;;;;;2.57;1.30;;;;;;;20.30;65.07;99685.34;4993814;28;20198;-67
2022/10/15 04:43:32;;;;;;;3.00;1.20;;;;;;;20.29;65.26;99690.28;4995854;28;20174;-68
2022/10/15 04:45:58;;;;;;;2.17;1.30;;;;;;;20.29;65.28;99690.28;4994436;28;20524;-68
2022/10/15 04:48:24;;;;;;;2.30;1.10;;;;;;;20.30;65.27;99680.44;4978130;28;20721;-68
2022/10/15 04:50:49;;;;;;;2.43;1.40;;;;;;;20.31;64.89;99679.19;4994397;28;20548;-68
2022/10/15 04:53:15;;;;;;;2.60;1.27;;;;;;;20.27;65.09;99681.25;4994652;28;20468;-67
2022/10/15 04:55:40;;;;;;;2.77;0.93;;;;;;;20.29;65.32;99687.41;4995134;28;20176;-68
2022/10/15 04:58:06;;;;;;;3.00;1.27;;;;;;;20.27;65.37;99692.72;4979728;28;20166;-68
2022/10/15 05:00:31;;;;;;;1.93;1.23;;;;;;;20.27;65.21;99689.03;5015295;28;20192;-67
2022/10/15 05:02:56;;;;;;;3.67;1.17;;;;;;;20.30;65.34;99699.66;4998234;28;20184;-67
2022/10/15 05:05:22;;;;;;;2.80;1.20;;;;;;;20.27;65.33;99704.16;5015307;28;20252;-68
2022/10/15 05:07:47;;;;;;;2.27;1.30;;;;;;;20.29;65.18;99703.78;5014512;28;20236;-67
2022/10/15 05:10:13;;;;;;;1.77;0.97;;;;;;;20.29;65.19;99698.88;5015039;28;20162;-67
2022/10/15 05:12:38;;;;;;;1.70;1.13;;;;;;;20.31;64.83;99705.00;5015010;28;20667;-67
2022/10/15 05:15:04;;;;;;;1.90;1.20;;;;;;;20.27;65.33;99715.63;4998950;28;20668;-67
2022/10/15 05:17:29;;;;;;;2.30;1.10;;;;;;;20.29;65.29;99716.06;5022892;28;20224;-67
2022/10/15 05:19:55;;;;;;;2.00;1.20;;;;;;;20.30;65.15;99714.84;5016644;28;20209;-67
2022/10/15 05:22:21;;;;;;;1.80;1.10;;;;;;;20.29;65.16;99713.22;4998825;28;20201;-67
2022/10/15 05:24:46;;;;;;;1.80;1.17;;;;;;;20.29;65.42;99712.38;5014534;28;20185;-67
2022/10/15 05:27:12;;;;;;;2.07;1.10;;;;;;;20.30;65.17;99716.88;5017421;28;20177;-67
2022/10/15 05:29:38;;;;;;;2.97;1.10;;;;;;;20.31;65.03;99716.47;4999934;28;20189;-67
2022/10/15 05:32:04;;;;;;;2.30;1.30;;;;;;;20.28;65.24;99717.31;5016488;28;20162;-68
2022/10/15 05:34:29;;;;;;;2.20;1.20;;;;;;;20.30;65.25;99703.38;5015613;28;20439;-68
2022/10/15 05:36:58;;;;;;;1.87;0.93;;;;;;;20.29;64.86;99718.94;5016059;28;20170;-67
2022/10/15 05:39:24;;;;;;;2.07;1.10;;;;;;;20.30;64.95;99720.56;5001939;28;20302;-67
2022/10/15 05:41:49;;;;;;;2.00;1.30;;;;;;;20.30;64.96;99726.31;5019974;28;20870;-67
2022/10/15 05:44:14;;;;;;;2.20;1.20;;;;;;;20.28;64.99;99725.06;5004236;28;20241;-67
2022/10/15 05:46:40;;;;;;;2.20;1.10;;;;;;;20.31;65.22;99722.19;5020276;28;20173;-67
2022/10/15 05:49:05;;;;;;;2.20;1.30;;;;;;;20.28;65.00;99728.78;5020922;28;20165;-67
2022/10/15 05:51:31;;;;;;;2.17;1.27;;;;;;;20.28;65.17;99728.78;5003619;28;20320;-67
2022/10/15 05:53:58;;;;;;;2.10;1.20;;;;;;;20.29;65.12;99729.56;5020652;28;20616;-67
2022/10/15 05:56:24;;;;;;;2.70;1.27;;;;;;;20.28;64.98;99731.63;5021306;28;20174;-67
2022/10/15 05:58:49;;;;;;;2.37;1.20;;;;;;;20.28;65.23;99727.94;5020612;28;20481;-67
2022/10/15 06:01:15;;;;;;;3.17;1.30;;;;;;;20.28;65.06;99731.63;5019889;28;20672;-67
2022/10/15 06:03:40;;;;;;;2.20;1.00;;;;;;;20.28;65.30;99731.63;5001912;28;20699;-67
2022/10/15 06:06:17;;;;;;;2.50;1.40;;;;;;;20.29;64.99;99736.13;5001489;28;20600;-67
2022/10/15 06:08:43;;;;;;;2.03;1.13;;;;;;;20.29;65.16;99738.19;5032993;28;20226;-67
2022/10/15 06:11:08;;;;;;;2.30;1.40;;;;;;;20.28;64.96;99734.50;4984997;28;20428;-67
2022/10/15 06:13:34;;;;;;;2.87;1.40;;;;;;;20.28;65.04;99734.50;5011435;28;20181;-67
2022/10/15 06:15:59;;;;;;;1.67;1.10;;;;;;;20.30;64.99;99742.66;5010546;28;20189;-67
2022/10/15 06:18:24;;;;;;;1.90;1.23;;;;;;;20.28;65.10;99745.97;5034619;28;20231;-67
2022/10/15 06:20:51;;;;;;;1.80;1.00;;;;;;;20.30;65.06;99752.09;5023712;28;20207;-67
2022/10/15 06:23:16;;;;;;;3.30;1.30;;;;;;;20.30;65.15;99751.28;5041315;28;20179;-67
2022/10/15 06:25:42;;;;;;;1.90;1.10;;;;;;;20.28;64.90;99745.97;5038844;28;20457;-67
2022/10/15 06:28:08;;;;;;;2.00;1.17;;;;;;;20.28;65.09;99756.59;5031394;28;20540;-67
2022/10/15 06:30:34;;;;;;;2.10;1.00;;;;;;;20.29;65.24;99752.50;5039997;28;20180;-68
2022/10/15 06:32:59;;;;;;;2.60;1.03;;;;;;;20.29;65.15;99756.22;5040969;28;20426;-67
2022/10/15 06:35:25;;;;;;;2.50;1.17;;;;;;;20.29;65.22;99761.94;5040211;28;20187;-67
2022/10/15 06:37:51;;;;;;;1.80;1.10;;;;;;;20.29;65.02;99772.56;5035763;28;20667;-67
2022/10/15 06:40:16;;;;;;;1.97;1.17;;;;;;;20.28;64.97;99766.03;5030390;28;20483;-67
2022/10/15 06:42:42;;;;;;;1.53;0.93;;;;;;;20.27;65.02;99764.38;5022016;28;20214;-67
2022/10/15 06:45:11;;;;;;;1.93;1.10;;;;;;;20.29;64.96;99767.66;5039695;28;20175;-67
2022/10/15 06:47:38;;;;;;;3.23;1.37;;;;;;;20.27;65.20;99772.97;5052601;28;20180;-67
2022/10/15 06:50:05;;;;;;;1.73;1.17;;;;;;;20.29;65.00;99775.44;5027514;28;20433;-67
2022/10/15 06:52:31;;;;;;;1.90;0.93;;;;;;;20.29;64.99;99782.00;5040673;28;20431;-67
2022/10/15 06:54:56;;;;;;;2.00;1.00;;;;;;;20.30;64.93;99777.06;5033507;28;20426;-67
2022/10/15 06:57:24;;;;;;;2.27;1.20;;;;;;;20.31;65.28;99778.75;5035996;28;20430;-68
2022/10/15 06:59:49;;;;;;;2.17;1.23;;;;;;;20.29;64.98;99782.00;5035818;28;20171;-67
2022/10/15 07:02:16;;;;;;;3.10;1.20;;;;;;;20.31;65.09;99779.53;5058349;28;20527;-68
2022/10/15 07:04:42;;;;;;;1.70;1.00;;;;;;;20.31;64.81;99778.75;5039771;28;20393;-67
2022/10/15 07:07:07;;;;;;;2.00;1.20;;;;;;;20.30;65.25;99783.63;5044912;28;20423;-67
2022/10/15 07:09:34;;;;;;;1.70;0.90;;;;;;;20.30;65.26;99782.81;5023762;28;20192;-67
2022/10/15 07:11:59;;;;;;;1.87;1.00;;;;;;;20.30;64.91;99789.38;5024454;28;20184;-67
2022/10/15 07:14:25;;;;;;;2.67;1.10;;;;;;;20.29;65.02;99784.88;5029703;28;20426;-67
2022/10/15 07:16:50;;;;;;;2.20;1.17;;;;;;;20.30;65.01;99783.63;5037955;28;20240;-67
2022/10/15 07:19:16;;;;;;;2.20;1.10;;;;;;;20.29;65.08;99784.88;5037252;28;20191;-67
2022/10/15 07:21:41;;;;;;;2.53;1.20;;;;;;;20.30;65.21;99794.28;5050589;28;20207;-67
2022/10/15 07:24:07;;;;;;;1.77;1.03;;;;;;;20.30;65.05;99800.84;5055589;28;20168;-67
2022/10/15 07:26:32;;;;;;;1.87;0.90;;;;;;;20.30;65.06;99791.41;5022706;28;20202;-67
2022/10/15 07:28:57;;;;;;;2.13;1.07;;;;;;;20.29;64.94;99787.75;5030459;28;20548;-67
2022/10/15 07:31:23;;;;;;;1.70;0.87;;;;;;;20.27;65.22;99787.31;5037806;28;20180;-67
2022/10/15 07:33:48;;;;;;;1.97;1.20;;;;;;;20.29;65.19;99784.03;5036302;28;20179;-67
2022/10/15 07:36:14;;;;;;;1.70;1.10;;;;;;;20.28;65.22;99791.84;5015802;28;20180;-67
2022/10/15 07:38:39;;;;;;;3.43;1.20;;;;;;;20.32;65.10;99795.50;5034577;28;20179;-67
2022/10/15 07:41:05;;;;;;;1.80;0.97;;;;;;;20.31;65.00;99791.00;5022791;28;20203;-69
2022/10/15 07:43:31;;;;;;;2.03;1.13;;;;;;;20.31;64.94;99781.59;5023273;28;20176;-68
2022/10/15 07:45:56;;;;;;;1.60;0.93;;;;;;;20.31;64.91;99785.28;5025023;28;20586;-68
2022/10/15 07:48:22;;;;;;;2.30;1.10;;;;;;;20.30;64.96;99788.53;5046553;28;20191;-67
2022/10/15 07:50:53;;;;;;;2.30;1.00;;;;;;;20.32;64.96;99792.66;5042767;28;20631;-68
2022/10/15 07:53:19;;;;;;;2.00;1.07;;;;;;;20.30;64.88;99797.97;5027047;28;20564;-68
2022/10/15 07:55:44;;;;;;;2.90;0.90;;;;;;;20.30;64.91;99792.25;5038097;28;20481;-68
2022/10/15 07:58:10;;;;;;;2.17;1.00;;;;;;;20.30;64.96;99797.97;5029418;28;20195;-68
2022/10/15 08:00:35;;;;;;;2.23;0.90;;;;;;;20.31;65.03;99802.47;5031568;28;20212;-68
2022/10/15 08:03:01;;;;;;;1.93;1.17;;;;;;;20.30;64.99;99805.75;5036028;28;20520;-68
2022/10/15 08:05:26;;;;;;;1.83;0.87;;;;;;;20.31;64.97;99810.28;5034628;28;20204;-67
2022/10/15 08:07:51;;;;;;;1.57;0.87;;;;;;;20.31;64.97;99808.22;5031695;28;20184;-67
2022/10/15 08:10:17;;;;;;;3.37;1.20;;;;;;;20.33;64.67;99804.94;5033849;28;20180;-67
2022/10/15 08:12:43;;;;;;;1.93;1.10;;;;;;;20.32;64.70;99806.97;5050246;28;20203;-68
2022/10/15 08:15:08;;;;;;;2.77;1.20;;;;;;;20.31;64.86;99813.16;5050334;28;20644;-68
2022/10/15 08:17:34;;;;;;;2.00;1.00;;;;;;;20.30;64.98;99812.31;5035371;28;20227;-68
2022/10/15 08:19:59;;;;;;;2.27;1.03;;;;;;;20.30;65.47;99812.31;5040846;28;20223;-68
2022/10/15 08:22:25;;;;;;;1.97;0.93;;;;;;;20.32;65.26;99814.78;5034566;28;20191;-68
2022/10/15 08:24:53;;;;;;;2.10;1.03;;;;;;;20.29;65.04;99810.66;5035636;28;20191;-68
2022/10/15 08:27:19;;;;;;;2.00;1.00;;;;;;;20.30;64.81;99809.44;5036985;28;20187;-68
2022/10/15 08:29:45;;;;;;;1.70;0.90;;;;;;;20.33;65.11;99816.41;5046514;28;20435;-68
2022/10/15 08:32:11;;;;;;;1.73;1.00;;;;;;;20.33;64.73;99817.25;5048293;28;20176;-67
2022/10/15 08:34:36;;;;;;;1.57;0.97;;;;;;;20.32;64.89;99814.78;5035225;28;20442;-68
2022/10/15 08:37:02;;;;;;;2.00;1.03;;;;;;;20.32;64.93;99826.25;5038857;28;20422;-67
2022/10/15 08:39:27;;;;;;;2.40;0.90;;;;;;;20.32;65.12;99824.19;5019782;28;20188;-68
2022/10/15 08:41:54;;;;;;;2.20;1.10;;;;;;;20.31;64.96;99827.47;5035895;28;20201;-68
2022/10/15 08:44:31;;;;;;;1.93;1.07;;;;;;;20.31;64.88;99834.00;5036009;28;20247;-67
2022/10/15 08:47:24;;;;;;;1.53;0.80;;;;;;;20.33;64.90;99828.72;5041771;28;20430;-68
2022/10/15 08:49:50;;;;;;;1.80;0.90;;;;;;;20.33;64.84;99831.59;5045867;28;20886;-68
2022/10/15 08:52:15;;;;;;;1.70;1.10;;;;;;;20.34;64.40;99836.09;5041135;28;20430;-68
2022/10/15 08:54:40;;;;;;;1.97;1.10;;;;;;;20.32;64.80;99831.97;5039892;28;20436;-68
2022/10/15 08:57:35;;;;;;;1.60;0.93;;;;;;;20.33;65.06;99840.19;5018716;28;20175;-68
2022/10/15 09:00:11;;;;;;;1.70;1.00;;;;;;;20.34;64.92;99841.81;5025710;28;20219;-68
2022/10/15 09:02:57;;;;;;;1.80;1.00;;;;;;;20.35;64.77;99837.72;5039278;28;20493;-68
2022/10/15 09:05:48;;;;;;;1.90;1.10;;;;;;;20.34;65.13;99838.13;5032242;28;20814;-67
2022/10/15 09:08:38;;;;;;;2.67;1.10;;;;;;;20.33;64.80;99839.34;5027234;28;20538;-67
2022/10/15 09:11:14;;;;;;;3.33;1.20;;;;;;;20.33;64.86;99834.44;5043817;28;21130;-68
2022/10/15 09:13:41;;;;;;;2.37;1.33;;;;;;;20.34;64.75;99836.09;5035391;28;20483;-67
2022/10/15 09:16:21;;;;;;;1.80;1.00;;;;;;;20.33;64.88;99839.34;5014998;28;20446;-68
2022/10/15 09:18:48;;;;;;;2.10;0.90;;;;;;;20.34;64.88;99833.22;5037787;28;20470;-67
2022/10/15 09:21:14;;;;;;;2.03;0.90;;;;;;;20.36;64.81;99839.34;5009818;28;20454;-68
2022/10/15 09:23:42;;;;;;;2.00;0.90;;;;;;;20.33;64.77;99834.44;5029739;28;20468;-68
2022/10/15 09:26:10;;;;;;;1.43;0.70;;;;;;;20.33;64.80;99839.34;5026770;28;21130;-67
2022/10/15 09:28:56;;;;;;;1.70;0.97;;;;;;;20.33;64.80;99840.19;5037300;28;20423;-68
2022/10/15 09:31:24;;;;;;;1.80;0.90;;;;;;;20.36;65.06;99835.69;5028887;28;20486;-67
2022/10/15 09:33:53;;;;;;;2.67;1.20;;;;;;;20.34;65.11;99850.41;5025847;28;20840;-68
2022/10/15 09:36:47;;;;;;;2.87;0.97;;;;;;;20.36;64.89;99855.75;5020617;28;20505;-68
2022/10/15 09:39:54;;;;;;;2.67;0.97;;;;;;;20.35;64.76;99851.22;5035135;28;20435;-67
2022/10/15 09:42:26;;;;;;;1.67;1.00;;;;;;;20.35;64.89;99848.34;5034169;28;20987;-67
2022/10/15 09:44:51;;;;;;;2.17;1.10;;;;;;;20.33;64.97;99845.91;5026384;28;20435;-68
2022/10/15 09:47:22;;;;;;;2.77;1.10;;;;;;;20.36;64.97;99850.03;5033316;28;20487;-68
2022/10/15 09:49:48;;;;;;;2.00;1.00;;;;;;;20.36;64.88;99850.03;5040495;28;20219;-68
2022/10/15 09:52:16;;;;;;;2.03;0.80;;;;;;;20.35;65.01;99849.19;5033046;28;20493;-68
2022/10/15 09:55:07;;;;;;;1.60;0.80;;;;;;;20.34;65.03;99840.97;5032125;28;20192;-67
2022/10/15 09:57:32;;;;;;;4.77;1.23;;;;;;;20.37;64.85;99851.66;5040414;28;20407;-68
2022/10/15 10:00:02;;;;;;;1.87;1.00;;;;;;;20.36;64.98;99856.56;5043519;28;20914;-67
2022/10/15 10:02:28;;;;;;;1.60;0.97;;;;;;;20.35;64.94;99854.91;5011839;28;20219;-68
2022/10/15 10:04:54;;;;;;;2.17;0.87;;;;;;;20.35;64.76;99854.09;5017391;28;20455;-68
2022/10/15 10:07:33;;;;;;;1.60;1.00;;;;;;;20.36;64.65;99850.81;5015950;28;20434;-67
2022/10/15 10:10:01;;;;;;;1.90;1.03;;;;;;;20.36;64.86;99859.41;5032752;28;20176;-68
2022/10/15 10:12:29;;;;;;;2.27;1.17;;;;;;;20.37;64.57;99858.19;5020875;28;20431;-68
2022/10/15 10:14:59;;;;;;;1.93;0.80;;;;;;;20.37;64.59;99861.06;5018676;28;20505;-67
2022/10/15 10:17:26;;;;;;;2.60;1.00;;;;;;;20.38;64.37;99859.03;5020695;28;20501;-68
2022/10/15 10:20:10;;;;;;;1.50;0.87;;;;;;;20.38;64.53;99864.75;5020059;28;20470;-67
2022/10/15 10:22:42;;;;;;;1.47;0.80;;;;;;;20.36;64.93;99862.28;5039886;28;21060;-67
2022/10/15 10:25:28;;;;;;;2.53;1.10;;;;;;;20.35;64.88;99866.38;5032760;28;20431;-68
2022/10/15 10:27:54;;;;;;;2.47;1.20;;;;;;;20.38;64.57;99862.72;5039271;28;20484;-67
2022/10/15 10:30:19;;;;;;;1.93;0.90;;;;;;;20.38;65.08;99864.75;5014979;28;20564;-68
2022/10/15 10:32:45;;;;;;;2.73;0.90;;;;;;;20.38;64.50;99859.03;5023339;28;20446;-68
2022/10/15 10:35:20;;;;;;;2.30;1.10;;;;;;;20.37;64.89;99861.06;5013848;28;20200;-68
2022/10/15 10:37:46;;;;;;;1.60;1.00;;;;;;;20.39;64.65;99857.78;5026191;28;20199;-67
2022/10/15 10:40:39;;;;;;;1.80;0.90;;;;;;;20.38;64.95;99859.84;5037403;28;20939;-67
2022/10/15 10:43:28;;;;;;;1.50;0.70;;;;;;;20.37;64.82;99861.06;5031326;28;20187;-68
2022/10/15 10:45:56;;;;;;;2.00;1.20;;;;;;;20.37;64.54;99858.19;5033443;28;20433;-67
2022/10/15 10:48:42;;;;;;;2.43;0.90;;;;;;;20.38;64.71;99861.91;5021304;28;20925;-67
2022/10/15 10:51:11;;;;;;;2.50;0.97;;;;;;;20.36;64.70;99853.69;5041598;28;20453;-67
2022/10/15 10:53:50;;;;;;;2.73;1.37;;;;;;;20.36;64.93;99867.22;5037889;28;20427;-67
2022/10/15 10:56:17;;;;;;;1.77;0.90;;;;;;;20.38;64.74;99859.03;5045149;28;20422;-67
2022/10/15 10:58:42;;;;;;;1.60;0.80;;;;;;;20.40;64.53;99866.00;5024457;28;20573;-68
2022/10/15 11:01:10;;;;;;;1.90;1.00;;;;;;;20.40;64.79;99871.72;5026374;28;20458;-67
2022/10/15 11:03:41;;;;;;;4.53;0.93;;;;;;;20.38;64.88;99859.03;5022693;28;20211;-67
2022/10/15 11:06:07;;;;;;;1.90;1.10;;;;;;;20.38;64.64;99871.31;5020216;28;20422;-68
2022/10/15 11:09:17;;;;;;;1.30;0.70;;;;;;;20.39;64.63;99872.13;5023890;28;20542;-67
2022/10/15 11:11:59;;;;;;;1.80;0.97;;;;;;;20.39;64.89;99872.97;5006716;28;20783;-67
2022/10/15 11:14:53;;;;;;;1.97;0.90;;;;;;;20.39;64.75;99875.84;5036430;28;20427;-67
2022/10/15 11:17:33;;;;;;;1.70;0.90;;;;;;;20.37;64.77;99869.66;5023831;28;20539;-67
2022/10/15 11:20:05;;;;;;;1.60;0.83;;;;;;;20.39;64.58;99870.09;5033924;28;20429;-67
2022/10/15 11:22:47;;;;;;;1.63;0.87;;;;;;;20.39;64.75;99875.84;5027911;28;20446;-67
2022/10/15 11:25:24;;;;;;;1.80;0.90;;;;;;;20.39;64.79;99870.09;5021936;28;20415;-67
2022/10/15 11:28:22;;;;;;;3.47;0.97;;;;;;;20.40;64.92;99863.13;5037769;28;20551;-67
2022/10/15 11:31:02;;;;;;;1.47;0.70;;;;;;;20.41;64.85;99850.44;5021724;28;21402;-67
2022/10/15 11:33:30;;;;;;;1.77;1.03;;;;;;;20.40;64.81;99865.16;5018422;28;20422;-68
2022/10/15 11:36:03;;;;;;;1.70;0.97;;;;;;;20.40;64.89;99854.53;5040279;28;20435;-68
2022/10/15 11:38:42;;;;;;;2.13;1.00;;;;;;;20.42;64.39;99849.19;5036967;28;20462;-67
2022/10/15 11:41:29;;;;;;;1.93;1.13;;;;;;;20.40;65.07;99854.53;5025322;28;20451;-67
2022/10/15 11:44:20;;;;;;;1.80;0.80;;;;;;;20.38;64.63;99844.69;5019832;28;20522;-67